sensor_id;sensor_type;location;lat;lon;timestamp;pressure;altitude;pressure_sealevel;temperature;humidity
49825;BME280;35714;55.708;37.478;2022-11-12T00:01:00;99413.28;;;9.17;74.43
49825;BME280;35714;55.708;37.478;2022-11-12T00:03:44;99401.94;;;9.09;75.12
49825;BME280;35714;55.708;37.478;2022-11-12T00:06:28;99379.41;;;8.96;75.71
49825;BME280;35714;55.708;37.478;2022-11-12T00:09:13;99377.47;;;8.85;76.77
49825;BME280;35714;55.708;37.478;2022-11-12T00:11:57;99377.91;;;8.82;77.45
49825;BME280;35714;55.708;37.478;2022-11-12T00:14:41;99347.25;;;8.70;77.54
49825;BME280;35714;55.708;37.478;2022-11-12T00:17:25;99346.84;;;8.66;78.47
49825;BME280;35714;55.708;37.478;2022-11-12T00:20:10;99347.69;;;8.66;78.93
49825;BME280;35714;55.708;37.478;2022-11-12T00:22:54;99338.59;;;8.61;79.16
49825;BME280;35714;55.708;37.478;2022-11-12T00:25:38;99356.84;;;8.65;79.50
49825;BME280;35714;55.708;37.478;2022-11-12T00:28:22;99357.66;;;8.66;79.17
49825;BME280;35714;55.708;37.478;2022-11-12T00:31:10;99358.97;;;8.63;79.42
49825;BME280;35714;55.708;37.478;2022-11-12T00:33:54;99358.50;;;8.66;78.77
49825;BME280;35714;55.708;37.478;2022-11-12T00:36:39;99365.19;;;8.64;78.92
49825;BME280;35714;55.708;37.478;2022-11-12T00:39:23;99369.78;;;8.63;78.66
49825;BME280;35714;55.708;37.478;2022-11-12T00:42:07;99373.44;;;8.69;78.41
49825;BME280;35714;55.708;37.478;2022-11-12T00:44:51;99364.50;;;8.69;78.06
49825;BME280;35714;55.708;37.478;2022-11-12T00:47:36;99366.63;;;8.66;78.50
49825;BME280;35714;55.708;37.478;2022-11-12T00:50:22;99361.03;;;8.61;78.85
49825;BME280;35714;55.708;37.478;2022-11-12T00:53:06;99389.28;;;8.65;78.71
49825;BME280;35714;55.708;37.478;2022-11-12T00:55:50;99372.03;;;8.66;78.51
49825;BME280;35714;55.708;37.478;2022-11-12T00:58:35;99370.38;;;8.65;79.01
49825;BME280;35714;55.708;37.478;2022-11-12T01:01:19;99360.78;;;8.70;78.90
49825;BME280;35714;55.708;37.478;2022-11-12T01:04:04;99367.66;;;8.65;79.18
49825;BME280;35714;55.708;37.478;2022-11-12T01:06:48;99356.84;;;8.65;79.22
49825;BME280;35714;55.708;37.478;2022-11-12T01:09:32;99345.22;;;8.65;79.46
49825;BME280;35714;55.708;37.478;2022-11-12T01:12:17;99342.88;;;8.69;78.97
49825;BME280;35714;55.708;37.478;2022-11-12T01:15:01;99334.19;;;8.66;79.40
49825;BME280;35714;55.708;37.478;2022-11-12T01:17:46;99333.97;;;8.68;79.41
49825;BME280;35714;55.708;37.478;2022-11-12T01:20:30;99332.31;;;8.67;79.81
49825;BME280;35714;55.708;37.478;2022-11-12T01:23:14;99325.47;;;8.64;79.68
49825;BME280;35714;55.708;37.478;2022-11-12T01:26:10;99333.56;;;8.64;79.81
49825;BME280;35714;55.708;37.478;2022-11-12T01:28:56;99323.59;;;8.65;79.82
49825;BME280;35714;55.708;37.478;2022-11-12T01:31:40;99347.84;;;8.72;79.56
49825;BME280;35714;55.708;37.478;2022-11-12T01:34:25;99329.81;;;8.65;79.66
49825;BME280;35714;55.708;37.478;2022-11-12T01:37:09;99321.72;;;8.65;79.62
49825;BME280;35714;55.708;37.478;2022-11-12T01:39:53;99332.31;;;8.67;79.42
49825;BME280;35714;55.708;37.478;2022-11-12T01:42:38;99325.63;;;8.70;79.58
49825;BME280;35714;55.708;37.478;2022-11-12T01:45:22;99315.28;;;8.66;79.65
49825;BME280;35714;55.708;37.478;2022-11-12T01:48:13;99315.63;;;8.70;79.68
49825;BME280;35714;55.708;37.478;2022-11-12T01:51:06;99319.31;;;8.76;79.33
49825;BME280;35714;55.708;37.478;2022-11-12T01:53:53;99306.72;;;8.70;79.30
49825;BME280;35714;55.708;37.478;2022-11-12T01:56:40;99315.94;;;8.80;79.06
49825;BME280;35714;55.708;37.478;2022-11-12T01:59:30;99315.09;;;8.80;79.15
49825;BME280;35714;55.708;37.478;2022-11-12T02:02:16;99312.63;;;8.78;79.53
49825;BME280;35714;55.708;37.478;2022-11-12T02:05:01;99321.81;;;8.77;79.30
49825;BME280;35714;55.708;37.478;2022-11-12T02:07:46;99311.00;;;8.77;79.67
49825;BME280;35714;55.708;37.478;2022-11-12T02:10:33;99304.75;;;8.77;79.98
49825;BME280;35714;55.708;37.478;2022-11-12T02:13:18;99304.75;;;8.77;79.81
49825;BME280;35714;55.708;37.478;2022-11-12T02:16:21;99292.28;;;8.76;80.01
49825;BME280;35714;55.708;37.478;2022-11-12T02:19:09;99288.06;;;8.80;80.06
49825;BME280;35714;55.708;37.478;2022-11-12T02:21:53;99270.22;;;8.79;80.16
49825;BME280;35714;55.708;37.478;2022-11-12T02:24:37;99274.53;;;8.80;80.46
49825;BME280;35714;55.708;37.478;2022-11-12T02:27:22;99269.75;;;8.82;80.23
49825;BME280;35714;55.708;37.478;2022-11-12T02:30:07;99271.03;;;8.79;80.63
49825;BME280;35714;55.708;37.478;2022-11-12T02:32:51;99283.88;;;8.84;80.54
49825;BME280;35714;55.708;37.478;2022-11-12T02:35:35;99264.81;;;8.79;80.74
49825;BME280;35714;55.708;37.478;2022-11-12T02:38:20;99249.75;;;8.83;80.69
49825;BME280;35714;55.708;37.478;2022-11-12T02:41:04;99259.41;;;8.79;80.90
49825;BME280;35714;55.708;37.478;2022-11-12T02:43:48;99253.53;;;8.82;80.85
49825;BME280;35714;55.708;37.478;2022-11-12T02:46:33;99268.31;;;8.79;80.99
49825;BME280;35714;55.708;37.478;2022-11-12T02:49:17;99255.78;;;8.85;80.65
49825;BME280;35714;55.708;37.478;2022-11-12T02:52:01;99244.34;;;8.83;80.74
49825;BME280;35714;55.708;37.478;2022-11-12T02:54:45;99252.47;;;8.83;80.68
49825;BME280;35714;55.708;37.478;2022-11-12T02:57:29;99257.19;;;8.88;80.22
49825;BME280;35714;55.708;37.478;2022-11-12T03:00:14;99264.16;;;8.95;79.85
49825;BME280;35714;55.708;37.478;2022-11-12T03:02:58;99269.56;;;8.95;79.80
49825;BME280;35714;55.708;37.478;2022-11-12T03:05:43;99266.28;;;8.93;79.80
49825;BME280;35714;55.708;37.478;2022-11-12T03:08:28;99249.22;;;8.93;79.84
49825;BME280;35714;55.708;37.478;2022-11-12T03:11:14;99249.84;;;8.95;79.65
49825;BME280;35714;55.708;37.478;2022-11-12T03:13:59;99243.28;;;9.02;79.61
49825;BME280;35714;55.708;37.478;2022-11-12T03:16:44;99247.03;;;9.01;79.30
49825;BME280;35714;55.708;37.478;2022-11-12T03:19:28;99233.72;;;9.00;79.47
49825;BME280;35714;55.708;37.478;2022-11-12T03:22:12;99235.16;;;9.02;79.55
49825;BME280;35714;55.708;37.478;2022-11-12T03:24:57;99213.44;;;9.09;78.97
49825;BME280;35714;55.708;37.478;2022-11-12T03:27:41;99230.59;;;9.15;78.78
49825;BME280;35714;55.708;37.478;2022-11-12T03:30:26;99226.84;;;9.16;78.68
49825;BME280;35714;55.708;37.478;2022-11-12T03:33:12;99214.69;;;9.07;78.77
49825;BME280;35714;55.708;37.478;2022-11-12T03:35:57;99220.28;;;9.12;78.95
49825;BME280;35714;55.708;37.478;2022-11-12T03:38:41;99222.97;;;9.12;79.00
49825;BME280;35714;55.708;37.478;2022-11-12T03:41:26;99210.97;;;9.19;78.54
49825;BME280;35714;55.708;37.478;2022-11-12T03:44:10;99202.03;;;9.19;78.51
49825;BME280;35714;55.708;37.478;2022-11-12T03:46:54;99207.22;;;9.20;78.25
49825;BME280;35714;55.708;37.478;2022-11-12T03:49:38;99222.63;;;9.20;78.51
49825;BME280;35714;55.708;37.478;2022-11-12T03:52:22;99224.50;;;9.19;78.78
49825;BME280;35714;55.708;37.478;2022-11-12T03:55:07;99234.03;;;9.22;78.79
49825;BME280;35714;55.708;37.478;2022-11-12T03:57:52;99219.13;;;9.31;78.40
49825;BME280;35714;55.708;37.478;2022-11-12T04:00:37;99201.25;;;9.30;78.24
49825;BME280;35714;55.708;37.478;2022-11-12T04:03:21;99218.22;;;9.37;77.68
49825;BME280;35714;55.708;37.478;2022-11-12T04:06:05;99205.50;;;9.38;77.40
49825;BME280;35714;55.708;37.478;2022-11-12T04:09:08;99192.66;;;9.33;77.77
49825;BME280;35714;55.708;37.478;2022-11-12T04:11:52;99177.97;;;9.29;77.89
49825;BME280;35714;55.708;37.478;2022-11-12T04:14:37;99169.84;;;9.41;77.49
49825;BME280;35714;55.708;37.478;2022-11-12T04:17:21;99169.84;;;9.41;77.36
49825;BME280;35714;55.708;37.478;2022-11-12T04:20:24;99169.50;;;9.37;77.60
49825;BME280;35714;55.708;37.478;2022-11-12T04:23:28;99172.91;;;9.45;76.91
49825;BME280;35714;55.708;37.478;2022-11-12T04:26:12;99161.38;;;9.37;77.26
49825;BME280;35714;55.708;37.478;2022-11-12T04:29:08;99171.38;;;9.49;77.04
49825;BME280;35714;55.708;37.478;2022-11-12T04:32:11;99167.38;;;9.39;77.45
49825;BME280;35714;55.708;37.478;2022-11-12T04:34:56;99168.22;;;9.40;77.34
49825;BME280;35714;55.708;37.478;2022-11-12T04:37:40;99173.75;;;9.45;77.24
49825;BME280;35714;55.708;37.478;2022-11-12T04:40:27;99165.41;;;9.47;76.93
49825;BME280;35714;55.708;37.478;2022-11-12T04:43:30;99175.16;;;9.48;76.83
49825;BME280;35714;55.708;37.478;2022-11-12T04:46:33;99184.81;;;9.44;77.09
49825;BME280;35714;55.708;37.478;2022-11-12T04:49:17;99160.22;;;9.45;77.35
49825;BME280;35714;55.708;37.478;2022-11-12T04:52:02;99157.41;;;9.52;76.95
49825;BME280;35714;55.708;37.478;2022-11-12T04:54:50;99162.00;;;9.51;77.09
49825;BME280;35714;55.708;37.478;2022-11-12T04:57:35;99183.06;;;9.61;76.24
49825;BME280;35714;55.708;37.478;2022-11-12T05:00:19;99160.69;;;9.54;76.54
49825;BME280;35714;55.708;37.478;2022-11-12T05:03:03;99160.81;;;9.59;76.44
49825;BME280;35714;55.708;37.478;2022-11-12T05:05:47;99163.06;;;9.62;76.39
49825;BME280;35714;55.708;37.478;2022-11-12T05:08:32;99152.69;;;9.59;76.44
49825;BME280;35714;55.708;37.478;2022-11-12T05:11:16;99159.88;;;9.77;75.64
49825;BME280;35714;55.708;37.478;2022-11-12T05:14:01;99164.94;;;9.73;75.77
49825;BME280;35714;55.708;37.478;2022-11-12T05:16:45;99156.09;;;9.66;75.99
49825;BME280;35714;55.708;37.478;2022-11-12T05:19:29;99140.31;;;9.63;76.21
49825;BME280;35714;55.708;37.478;2022-11-12T05:22:13;99152.34;;;9.67;76.21
49825;BME280;35714;55.708;37.478;2022-11-12T05:24:58;99148.09;;;9.71;75.95
49825;BME280;35714;55.708;37.478;2022-11-12T05:27:42;99152.34;;;9.67;76.31
49825;BME280;35714;55.708;37.478;2022-11-12T05:30:26;99152.91;;;9.69;76.36
49825;BME280;35714;55.708;37.478;2022-11-12T05:33:11;99155.16;;;9.72;76.17
49825;BME280;35714;55.708;37.478;2022-11-12T05:35:55;99142.66;;;9.71;76.48
49825;BME280;35714;55.708;37.478;2022-11-12T05:38:40;99141.16;;;9.75;76.14
49825;BME280;35714;55.708;37.478;2022-11-12T05:41:25;99143.84;;;9.75;76.20
49825;BME280;35714;55.708;37.478;2022-11-12T05:44:09;99136.78;;;9.74;76.29
49825;BME280;35714;55.708;37.478;2022-11-12T05:46:53;99135.72;;;9.75;76.17
49825;BME280;35714;55.708;37.478;2022-11-12T05:49:38;99145.50;;;9.77;76.54
49825;BME280;35714;55.708;37.478;2022-11-12T05:52:22;99140.09;;;9.77;76.20
49825;BME280;35714;55.708;37.478;2022-11-12T05:55:07;99143.25;;;9.85;75.72
49825;BME280;35714;55.708;37.478;2022-11-12T05:57:51;99132.78;;;9.89;75.55
49825;BME280;35714;55.708;37.478;2022-11-12T06:00:35;99125.38;;;9.84;75.92
49825;BME280;35714;55.708;37.478;2022-11-12T06:03:25;99131.69;;;10.02;74.78
49825;BME280;35714;55.708;37.478;2022-11-12T06:06:09;99134.41;;;9.90;75.44
49825;BME280;35714;55.708;37.478;2022-11-12T06:08:53;99137.34;;;9.88;75.79
49825;BME280;35714;55.708;37.478;2022-11-12T06:11:38;99142.06;;;9.93;75.70
49825;BME280;35714;55.708;37.478;2022-11-12T06:14:22;99140.66;;;10.02;75.01
49825;BME280;35714;55.708;37.478;2022-11-12T06:17:06;99137.94;;;10.02;75.08
49825;BME280;35714;55.708;37.478;2022-11-12T06:19:51;99137.47;;;10.05;74.91
49825;BME280;35714;55.708;37.478;2022-11-12T06:22:35;99130.84;;;10.01;75.01
49825;BME280;35714;55.708;37.478;2022-11-12T06:25:19;99131.09;;;10.11;74.69
49825;BME280;35714;55.708;37.478;2022-11-12T06:28:03;99129.91;;;10.07;75.02
49825;BME280;35714;55.708;37.478;2022-11-12T06:30:47;99121.78;;;10.07;75.20
49825;BME280;35714;55.708;37.478;2022-11-12T06:33:32;99121.44;;;10.16;74.81
49825;BME280;35714;55.708;37.478;2022-11-12T06:36:18;99116.50;;;10.13;75.02
49825;BME280;35714;55.708;37.478;2022-11-12T06:39:03;99109.28;;;10.18;74.82
49825;BME280;35714;55.708;37.478;2022-11-12T06:41:47;99119.47;;;10.28;74.32
49825;BME280;35714;55.708;37.478;2022-11-12T06:44:32;99127.03;;;10.26;74.48
49825;BME280;35714;55.708;37.478;2022-11-12T06:47:16;99118.66;;;10.27;74.41
49825;BME280;35714;55.708;37.478;2022-11-12T06:50:00;99114.22;;;10.33;74.21
49825;BME280;35714;55.708;37.478;2022-11-12T06:52:45;99106.53;;;10.30;74.63
49825;BME280;35714;55.708;37.478;2022-11-12T06:55:29;99101.34;;;10.40;73.84
49825;BME280;35714;55.708;37.478;2022-11-12T06:58:13;99097.56;;;10.41;73.64
49825;BME280;35714;55.708;37.478;2022-11-12T07:01:03;99097.91;;;10.45;73.86
49825;BME280;35714;55.708;37.478;2022-11-12T07:03:50;99084.22;;;10.52;73.73
49825;BME280;35714;55.708;37.478;2022-11-12T07:06:35;99068.53;;;10.54;73.79
49825;BME280;35714;55.708;37.478;2022-11-12T07:09:19;99080.19;;;10.54;73.63
49825;BME280;35714;55.708;37.478;2022-11-12T07:12:04;99072.13;;;10.59;73.62
49825;BME280;35714;55.708;37.478;2022-11-12T07:14:48;99068.53;;;10.54;73.55
49825;BME280;35714;55.708;37.478;2022-11-12T07:17:33;99074.34;;;10.45;73.87
49825;BME280;35714;55.708;37.478;2022-11-12T07:20:17;99068.69;;;10.47;73.89
49825;BME280;35714;55.708;37.478;2022-11-12T07:23:01;99057.19;;;10.57;73.49
49825;BME280;35714;55.708;37.478;2022-11-12T07:25:45;99049.97;;;10.62;73.38
49825;BME280;35714;55.708;37.478;2022-11-12T07:28:29;99046.44;;;10.62;73.69
49825;BME280;35714;55.708;37.478;2022-11-12T07:31:14;99032.22;;;10.72;73.35
49825;BME280;35714;55.708;37.478;2022-11-12T07:33:59;99023.75;;;10.68;73.82
49825;BME280;35714;55.708;37.478;2022-11-12T07:36:43;99031.56;;;10.81;72.82
49825;BME280;35714;55.708;37.478;2022-11-12T07:39:28;99011.03;;;10.69;73.61
49825;BME280;35714;55.708;37.478;2022-11-12T07:42:12;99012.84;;;10.80;72.96
49825;BME280;35714;55.708;37.478;2022-11-12T07:44:56;99010.38;;;10.78;73.07
49825;BME280;35714;55.708;37.478;2022-11-12T07:47:40;99003.56;;;10.76;73.55
49825;BME280;35714;55.708;37.478;2022-11-12T07:50:24;98997.88;;;10.77;73.38
49825;BME280;35714;55.708;37.478;2022-11-12T07:53:09;98999.69;;;10.89;72.83
49825;BME280;35714;55.708;37.478;2022-11-12T07:55:54;99005.84;;;11.01;72.06
49825;BME280;35714;55.708;37.478;2022-11-12T07:58:39;99015.97;;;11.06;71.46
49825;BME280;35714;55.708;37.478;2022-11-12T08:01:35;98999.50;;;10.95;72.03
49825;BME280;35714;55.708;37.478;2022-11-12T08:04:19;99011.59;;;10.88;72.11
49825;BME280;35714;55.708;37.478;2022-11-12T08:07:03;98996.97;;;10.89;72.30
49825;BME280;35714;55.708;37.478;2022-11-12T08:09:47;99002.97;;;10.91;72.71
49825;BME280;35714;55.708;37.478;2022-11-12T08:12:32;99024.41;;;10.92;71.94
49825;BME280;35714;55.708;37.478;2022-11-12T08:15:16;98991.00;;;10.87;72.30
49825;BME280;35714;55.708;37.478;2022-11-12T08:18:00;98981.69;;;10.82;72.70
49825;BME280;35714;55.708;37.478;2022-11-12T08:20:44;98960.72;;;10.78;72.67
49825;BME280;35714;55.708;37.478;2022-11-12T08:23:29;98960.00;;;10.82;73.17
49825;BME280;35714;55.708;37.478;2022-11-12T08:26:15;98944.28;;;10.84;73.42
49825;BME280;35714;55.708;37.478;2022-11-12T08:28:59;98956.34;;;10.94;72.90
49825;BME280;35714;55.708;37.478;2022-11-12T08:31:45;98952.03;;;10.93;73.26
49825;BME280;35714;55.708;37.478;2022-11-12T08:34:29;98943.94;;;10.98;73.08
49825;BME280;35714;55.708;37.478;2022-11-12T08:37:13;98927.69;;;10.98;72.94
49825;BME280;35714;55.708;37.478;2022-11-12T08:39:58;98927.50;;;10.88;73.70
49825;BME280;35714;55.708;37.478;2022-11-12T08:42:42;98930.31;;;10.93;73.64
49825;BME280;35714;55.708;37.478;2022-11-12T08:45:27;98921.50;;;11.02;73.31
49825;BME280;35714;55.708;37.478;2022-11-12T08:48:12;98917.97;;;11.02;73.61
49825;BME280;35714;55.708;37.478;2022-11-12T08:51:00;98917.47;;;11.05;73.60
49825;BME280;35714;55.708;37.478;2022-11-12T08:53:45;98911.03;;;11.11;73.26
49825;BME280;35714;55.708;37.478;2022-11-12T08:56:29;98902.97;;;11.16;72.92
49825;BME280;35714;55.708;37.478;2022-11-12T08:59:13;98906.25;;;11.18;72.71
49825;BME280;35714;55.708;37.478;2022-11-12T09:01:59;98891.78;;;11.13;73.01
49825;BME280;35714;55.708;37.478;2022-11-12T09:04:43;98871.47;;;11.15;72.84
49825;BME280;35714;55.708;37.478;2022-11-12T09:07:28;98877.28;;;11.24;72.45
49825;BME280;35714;55.708;37.478;2022-11-12T09:10:13;98867.56;;;11.06;73.06
49825;BME280;35714;55.708;37.478;2022-11-12T09:12:58;98862.38;;;11.05;73.28
49825;BME280;35714;55.708;37.478;2022-11-12T09:15:42;98866.50;;;11.07;73.11
49825;BME280;35714;55.708;37.478;2022-11-12T09:18:26;98846.25;;;11.15;73.06
49825;BME280;35714;55.708;37.478;2022-11-12T09:21:11;98854.63;;;11.13;72.70
49825;BME280;35714;55.708;37.478;2022-11-12T09:23:56;98843.28;;;11.16;72.47
49825;BME280;35714;55.708;37.478;2022-11-12T09:26:40;98823.19;;;11.17;72.73
49825;BME280;35714;55.708;37.478;2022-11-12T09:29:24;98824.53;;;11.15;72.70
49825;BME280;35714;55.708;37.478;2022-11-12T09:32:08;98826.16;;;11.16;72.95
49825;BME280;35714;55.708;37.478;2022-11-12T09:34:53;98806.41;;;11.20;72.53
49825;BME280;35714;55.708;37.478;2022-11-12T09:37:40;98803.13;;;11.18;72.83
49825;BME280;35714;55.708;37.478;2022-11-12T09:40:36;98807.41;;;11.14;73.17
49825;BME280;35714;55.708;37.478;2022-11-12T09:43:47;98802.50;;;11.11;73.37
49825;BME280;35714;55.708;37.478;2022-11-12T09:46:53;98786.28;;;11.16;72.36
49825;BME280;35714;55.708;37.478;2022-11-12T09:49:54;98773.09;;;11.03;73.48
49825;BME280;35714;55.708;37.478;2022-11-12T09:52:42;98760.56;;;10.97;74.11
49825;BME280;35714;55.708;37.478;2022-11-12T09:55:47;98764.59;;;11.16;73.78
49825;BME280;35714;55.708;37.478;2022-11-12T09:58:32;98753.22;;;11.19;73.10
49825;BME280;35714;55.708;37.478;2022-11-12T10:01:51;98749.47;;;11.26;72.73
49825;BME280;35714;55.708;37.478;2022-11-12T10:05:26;98757.03;;;11.24;72.86
49825;BME280;35714;55.708;37.478;2022-11-12T10:14:23;98735.97;;;11.31;72.94
49825;BME280;35714;55.708;37.478;2022-11-12T10:17:20;98739.34;;;11.43;72.31
49825;BME280;35714;55.708;37.478;2022-11-12T10:20:24;98725.69;;;11.38;72.23
49825;BME280;35714;55.708;37.478;2022-11-12T10:23:20;98724.06;;;11.37;72.37
49825;BME280;35714;55.708;37.478;2022-11-12T10:26:14;98719.25;;;11.44;71.95
49825;BME280;35714;55.708;37.478;2022-11-12T10:31:51;98742.59;;;11.45;71.71
49825;BME280;35714;55.708;37.478;2022-11-12T10:34:35;98733.06;;;11.43;72.18
49825;BME280;35714;55.708;37.478;2022-11-12T10:37:54;98722.53;;;11.46;71.94
49825;BME280;35714;55.708;37.478;2022-11-12T10:40:41;98708.34;;;11.39;72.23
49825;BME280;35714;55.708;37.478;2022-11-12T10:43:25;98727.34;;;11.39;72.36
49825;BME280;35714;55.708;37.478;2022-11-12T10:46:21;98720.34;;;11.43;72.50
49825;BME280;35714;55.708;37.478;2022-11-12T10:49:06;98707.03;;;11.42;72.67
49825;BME280;35714;55.708;37.478;2022-11-12T10:52:19;98702.00;;;11.61;71.94
49825;BME280;35714;55.708;37.478;2022-11-12T10:55:19;98691.38;;;11.54;72.43
49825;BME280;35714;55.708;37.478;2022-11-12T11:01:04;98674.38;;;11.36;73.11
49825;BME280;35714;55.708;37.478;2022-11-12T11:03:54;98670.28;;;11.29;73.73
49825;BME280;35714;55.708;37.478;2022-11-12T11:06:39;98666.84;;;11.11;74.56
49825;BME280;35714;55.708;37.478;2022-11-12T11:09:25;98667.16;;;11.15;74.46
49825;BME280;35714;55.708;37.478;2022-11-12T11:12:29;98670.59;;;11.05;75.31
49825;BME280;35714;55.708;37.478;2022-11-12T11:15:19;98664.59;;;11.03;75.66
49825;BME280;35714;55.708;37.478;2022-11-12T11:18:03;98652.00;;;10.92;76.55
49825;BME280;35714;55.708;37.478;2022-11-12T11:20:58;98665.06;;;10.95;76.25
49825;BME280;35714;55.708;37.478;2022-11-12T11:39:23;98583.06;;;10.88;77.21
49825;BME280;35714;55.708;37.478;2022-11-12T11:58:01;98551.56;;;10.81;78.34
49825;BME280;35714;55.708;37.478;2022-11-12T12:03:50;98540.16;;;10.79;78.70
49825;BME280;35714;55.708;37.478;2022-11-12T12:06:56;98528.81;;;10.82;78.76
49825;BME280;35714;55.708;37.478;2022-11-12T12:21:38;98504.84;;;10.69;79.62
49825;BME280;35714;55.708;37.478;2022-11-12T12:24:55;98514.09;;;10.73;79.51
49825;BME280;35714;55.708;37.478;2022-11-12T12:27:50;98490.44;;;10.69;79.74
49825;BME280;35714;55.708;37.478;2022-11-12T12:30:40;98505.38;;;10.66;79.97
49825;BME280;35714;55.708;37.478;2022-11-12T12:33:36;98490.16;;;10.65;79.94
49825;BME280;35714;55.708;37.478;2022-11-12T12:36:32;98506.44;;;10.65;80.00
49825;BME280;35714;55.708;37.478;2022-11-12T12:39:24;98502.06;;;10.64;79.65
49825;BME280;35714;55.708;37.478;2022-11-12T12:42:20;98485.78;;;10.59;80.10
49825;BME280;35714;55.708;37.478;2022-11-12T12:45:26;98466.25;;;10.57;80.54
49825;BME280;35714;55.708;37.478;2022-11-12T12:48:20;98462.66;;;10.51;80.84
49825;BME280;35714;55.708;37.478;2022-11-12T12:51:06;98467.88;;;10.58;80.70
49825;BME280;35714;55.708;37.478;2022-11-12T12:53:50;98449.97;;;10.57;80.69
49825;BME280;35714;55.708;37.478;2022-11-12T12:59:21;98436.47;;;10.62;80.43
49825;BME280;35714;55.708;37.478;2022-11-12T13:02:21;98433.59;;;10.74;79.94
49825;BME280;35714;55.708;37.478;2022-11-12T13:05:22;98432.22;;;10.76;79.56
49825;BME280;35714;55.708;37.478;2022-11-12T13:08:10;98413.25;;;10.81;79.31
49825;BME280;35714;55.708;37.478;2022-11-12T13:10:55;98429.03;;;10.84;79.25
49825;BME280;35714;55.708;37.478;2022-11-12T13:13:45;98456.19;;;10.90;79.01
49825;BME280;35714;55.708;37.478;2022-11-12T13:25:30;98416.41;;;11.00;79.11
49825;BME280;35714;55.708;37.478;2022-11-12T13:28:14;98409.59;;;10.98;78.83
49825;BME280;35714;55.708;37.478;2022-11-12T13:31:00;98393.91;;;11.10;78.39
49825;BME280;35714;55.708;37.478;2022-11-12T13:33:44;98384.94;;;11.05;78.93
49825;BME280;35714;55.708;37.478;2022-11-12T13:36:28;98397.19;;;11.12;78.84
49825;BME280;35714;55.708;37.478;2022-11-12T13:39:16;98409.69;;;11.18;78.51
49825;BME280;35714;55.708;37.478;2022-11-12T13:42:10;98406.44;;;11.22;78.41
49825;BME280;35714;55.708;37.478;2022-11-12T13:45:20;98397.25;;;11.23;78.50
49825;BME280;35714;55.708;37.478;2022-11-12T13:48:17;98412.69;;;11.22;78.25
49825;BME280;35714;55.708;37.478;2022-11-12T13:51:06;98412.41;;;11.18;78.52
49825;BME280;35714;55.708;37.478;2022-11-12T13:53:54;98407.59;;;11.31;77.92
49825;BME280;35714;55.708;37.478;2022-11-12T13:56:38;98444.81;;;11.41;77.59
49825;BME280;35714;55.708;37.478;2022-11-12T13:59:24;98437.19;;;11.37;77.89
49825;BME280;35714;55.708;37.478;2022-11-12T14:02:25;98462.16;;;11.40;77.95
49825;BME280;35714;55.708;37.478;2022-11-12T14:05:15;98429.59;;;11.40;78.06
49825;BME280;35714;55.708;37.478;2022-11-12T14:11:32;98443.72;;;11.42;78.29
49825;BME280;35714;55.708;37.478;2022-11-12T14:20:48;98421.72;;;11.38;78.62
49825;BME280;35714;55.708;37.478;2022-11-12T14:23:36;98425.28;;;11.44;78.26
49825;BME280;35714;55.708;37.478;2022-11-12T14:26:37;98421.75;;;11.43;78.63
49825;BME280;35714;55.708;37.478;2022-11-12T14:29:21;98420.97;;;11.48;78.67
49825;BME280;35714;55.708;37.478;2022-11-12T14:32:08;98414.72;;;11.52;78.50
49825;BME280;35714;55.708;37.478;2022-11-12T14:34:52;98445.66;;;11.46;78.92
49825;BME280;35714;55.708;37.478;2022-11-12T14:37:37;98422.56;;;11.49;78.52
49825;BME280;35714;55.708;37.478;2022-11-12T14:40:25;98429.31;;;11.36;79.43
49825;BME280;35714;55.708;37.478;2022-11-12T14:47:07;98433.16;;;11.45;79.06
49825;BME280;35714;55.708;37.478;2022-11-12T14:49:46;98448.91;;;11.48;78.93
49825;BME280;35714;55.708;37.478;2022-11-12T14:52:36;98440.25;;;11.56;78.67
49825;BME280;35714;55.708;37.478;2022-11-12T14:55:30;98442.69;;;11.53;79.06
49825;BME280;35714;55.708;37.478;2022-11-12T14:58:16;98441.91;;;11.63;78.79
49825;BME280;35714;55.708;37.478;2022-11-12T15:01:23;98445.47;;;11.63;78.27
49825;BME280;35714;55.708;37.478;2022-11-12T15:06:56;98441.38;;;11.61;78.25
49825;BME280;35714;55.708;37.478;2022-11-12T15:09:41;98445.94;;;11.55;78.90
49825;BME280;35714;55.708;37.478;2022-11-12T15:12:30;98429.97;;;11.69;78.17
49825;BME280;35714;55.708;37.478;2022-11-12T15:15:18;98442.44;;;11.65;78.19
49825;BME280;35714;55.708;37.478;2022-11-12T15:18:16;98424.25;;;11.60;78.26
49825;BME280;35714;55.708;37.478;2022-11-12T15:26:49;98432.16;;;11.72;77.93
49825;BME280;35714;55.708;37.478;2022-11-12T15:29:36;98433.22;;;11.71;78.20
49825;BME280;35714;55.708;37.478;2022-11-12T15:35:19;98430.50;;;11.61;78.48
49825;BME280;35714;55.708;37.478;2022-11-12T15:38:09;98430.78;;;11.64;78.25
49825;BME280;35714;55.708;37.478;2022-11-12T15:40:55;98438.13;;;11.69;77.71
49825;BME280;35714;55.708;37.478;2022-11-12T15:43:40;98426.19;;;11.70;77.51
49825;BME280;35714;55.708;37.478;2022-11-12T15:46:26;98421.84;;;11.69;77.57
49825;BME280;35714;55.708;37.478;2022-11-12T15:49:13;98435.94;;;11.71;77.34
49825;BME280;35714;55.708;37.478;2022-11-12T15:51:58;98448.72;;;11.76;77.27
49825;BME280;35714;55.708;37.478;2022-11-12T15:54:43;98440.88;;;11.79;76.92
49825;BME280;35714;55.708;37.478;2022-11-12T15:57:31;98433.56;;;11.85;76.24
49825;BME280;35714;55.708;37.478;2022-11-12T16:00:22;98436.81;;;11.82;76.33
49825;BME280;35714;55.708;37.478;2022-11-12T16:03:14;98411.00;;;11.79;76.05
49825;BME280;35714;55.708;37.478;2022-11-12T16:05:59;98415.38;;;11.85;75.13
49825;BME280;35714;55.708;37.478;2022-11-12T16:08:43;98432.75;;;11.84;75.22
49825;BME280;35714;55.708;37.478;2022-11-12T16:11:28;98418.66;;;11.98;74.37
49825;BME280;35714;55.708;37.478;2022-11-12T16:14:18;98412.16;;;11.94;74.68
49825;BME280;35714;55.708;37.478;2022-11-12T16:17:03;98437.41;;;11.94;74.59